Главная страница
METAR-TAF:

METAR-TAF

Аэропорты :

Брно-Туржаны

Брно, Чехия

широта: 49-09N, долгота: 016-42E, высота над уровнем моря: 241 м

Текущие метеонаблюдения

Эта сводка был подготовлена 7 минут назад, в 21:00 UTC
Ветер 6 Узел от восточно-северо-восточный
Температура 16°C
Влажность 55%
Давление 1021 hPa
Видимость 10 км и более
Нет облачности ниже 1500 м, и нет кучево-дождевой облачности

METAR: LKTB 202100Z 06006KT CAVOK 16/07 Q1021 NOSIG

Время: 23:07 (21:07 UTC)

Прогноз

Эта сводка был подготовлена 4 часа и 7 минут назад, в 17:00 UTC
Прогноз действительный с 20-го 18 UTC до 22-го 00 UTC
Ветер 10 Узел от восточно-северо-восточный
Видимость 10 км и более
Нет облачности ниже 1500 м, и нет кучево-дождевой облачности
временами
С 20-го 18 UTC до 21-го 04 UTC
Ветер 14 Узел от восточно-северо-восточный с порывами до 26 Узел
изменения
С 21-го 10 UTC до 21-го 12 UTC
Ветер 5 Узел от восточно-юго-восточный

TAF: LKTB 201700Z 2018/2200 06010KT CAVOK TEMPO 2018/2104 07014G26KT BECMG 2110/2112 11005KT

Метеонаблюдения и прогнозы для более 4000 аэропортов (сводки METAR и TAF).

Имеющиеся станции представлены на карте желтыми и красными точками.

Чтобы увидеть название станции, наведите на нее мышь.

Затем щелкните, чтобы увидеть метеонаблюдения и метеопрогнозы.

Управление картой: чтобы увеличить масштаб, щелкните зеленые кнопки с черным крестиком; чтобы уменьшить масштаб, щелкните зеленую кнопку с тире; для просмотра соседних карт щелкайте зеленые стрелки.


METAR-TAF: